Data for 10/31/2014

Time Sea-Level Adjusted Pressure Absolute Pressure Temperature Relative Humidity Dew Point   
(mb) (inHg) (mb) (inHg) (C) (F) (%) (C) (F)
00:05 1019 30.09 849 25.07 8.9 48 45 -2.5 27.6
00:10 1019 30.09 849 25.07 8.9 48.1 44 -2.6 27.4
00:15 1019 30.09 848 25.04 9 48.2 44 -2.5 27.4
00:20 1019 30.09 849 25.07 9 48.1 44 -2.5 27.5
00:25 1019 30.09 849 25.07 8.9 48 45 -2.5 27.6
00:30 1019 30.09 848 25.04 8.8 47.9 45 -2.5 27.5
00:35 1019 30.09 849 25.07 8.8 47.8 45 -2.5 27.6
00:40 1019 30.09 849 25.07 8.8 47.8 45 -2.5 27.4
00:45 1019 30.09 848 25.04 8.8 47.8 45 -2.5 27.4
00:50 1019 30.09 848 25.04 8.7 47.7 45 -2.5 27.4
00:55 1019 30.09 848 25.04 8.7 47.6 45 -2.5 27.5
01:00 1019 30.09 848 25.04 8.7 47.6 45 -2.6 27.4
01:05 1019 30.09 848 25.04 8.7 47.6 45 -2.6 27.4
01:10 1019 30.09 848 25.04 8.7 47.6 45 -2.5 27.5
01:15 1019 30.09 848 25.04 8.6 47.4 45 -2.5 27.5
01:20 1019 30.09 848 25.04 8.6 47.4 46 -2.5 27.6
01:25 1019 30.09 848 25.04 8.5 47.2 46 -2.5 27.6
01:30 1019 30.09 848 25.04 8.4 47 46 -2.5 27.5
01:35 1019 30.09 848 25.04 8.3 47 47 -2.5 27.6
01:40 1019 30.09 848 25.04 8.3 46.9 47 -2.5 27.6
01:45 1019 30.09 848 25.04 8.3 47 47 -2.5 27.6
01:50 1019 30.09 848 25.04 8.3 46.9 47 -2.4 27.6
01:55 1019 30.09 848 25.04 8.1 46.6 48 -2.3 27.8
02:00 1019 30.09 848 25.04 8 46.3 47 -2.6 27.3
02:05 1019 30.09 848 25.04 8.1 46.6 47 -2.5 27.5
02:10 1019 30.09 848 25.04 8.2 46.7 47 -2.6 27.4
02:15 1019 30.09 848 25.04 8.2 46.8 47 -2.5 27.5
02:20 1019 30.09 848 25.04 8.2 46.7 47 -2.5 27.4
02:25 1018 30.06 848 25.04 8.1 46.7 47 -2.4 27.7
02:30 1018 30.06 848 25.04 8.1 46.6 47 -2.4 27.7
02:35 1018 30.06 848 25.04 8.1 46.5 47 -2.4 27.7
02:40 1018 30.06 848 25.04 8 46.4 48 -2.4 27.7
02:45 1018 30.06 847 25.01 8 46.3 48 -2.4 27.7
02:50 1018 30.06 847 25.01 8 46.3 48 -2.4 27.7
02:55 1018 30.06 847 25.01 8 46.3 47 -2.5 27.5
03:00 1018 30.06 847 25.01 8.1 46.5 47 -2.6 27.4
03:05 1018 30.06 847 25.01 8.2 46.8 47 -2.5 27.6
03:10 1018 30.06 847 25.01 8.1 46.6 47 -2.4 27.7
03:15 1018 30.06 847 25.01 8.1 46.6 47 -2.4 27.6
03:20 1018 30.06 847 25.01 8.2 46.7 47 -2.4 27.6
03:25 1018 30.06 847 25.01 8.2 46.7 47 -2.4 27.7
03:30 1018 30.06 847 25.01 8.1 46.6 47 -2.4 27.7
03:35 1018 30.06 847 25.01 8 46.4 48 -2.3 27.8
03:40 1017 30.03 847 25.01 7.9 46.3 48 -2.5 27.6
03:45 1017 30.03 846 24.98 8.2 46.8 47 -2.5 27.5
03:50 1017 30.03 846 24.98 8.5 47.3 46 -2.3 27.8
03:55 1017 30.03 846 24.98 8.6 47.4 46 -2.4 27.7
04:00 1017 30.03 846 24.98 8.6 47.4 46 -2.3 27.8
04:05 1017 30.03 846 24.98 8.6 47.6 46 -2.3 27.8
04:10 1017 30.03 846 24.98 8.5 47.3 46 -2.4 27.6
04:15 1017 30.03 846 24.98 8.6 47.5 46 -2.2 28
04:20 1017 30.03 846 24.98 8.6 47.4 46 -2.3 27.8
04:25 1017 30.03 846 24.98 8.5 47.3 47 -2.3 27.9
04:30 1017 30.03 846 24.98 8.4 47.1 47 -2.4 27.8
04:35 1017 30.03 846 24.98 8.4 47.1 46 -2.4 27.7
04:40 1017 30.03 846 24.98 8.6 47.4 46 -2.3 27.9
04:45 1017 30.03 846 24.98 8.6 47.5 46 -2.4 27.7
04:50 1017 30.03 846 24.98 8.6 47.5 46 -2.3 27.8
04:55 1017 30.03 846 24.98 8.4 47 47 -2.3 27.9
05:00 1017 30.03 846 24.98 8.4 47.1 47 -2.4 27.7
05:05 1017 30.03 846 24.98 8.2 46.7 49 -2 28.4
05:10 1017 30.03 846 24.98 7.6 45.6 50 -2 28.3
05:15 1017 30.03 846 24.98 7.1 44.8 52 -2.1 28.2
05:20 1017 30.03 846 24.98 6.8 44.3 53 -2 28.4
05:25 1017 30.03 846 24.98 6.5 43.7 53 -2.4 27.7
05:30 1016 30 846 24.98 7.1 44.8 51 -2.4 27.7
05:35 1016 30 845 24.95 7.4 45.3 49 -2.6 27.3
05:40 1016 30 845 24.95 7.8 46.1 48 -2.6 27.4
05:45 1016 30 845 24.95 8.1 46.6 47 -2.4 27.7
05:50 1016 30 845 24.95 8.5 47.3 44 -2.9 26.7
05:55 1016 30 845 24.95 8.9 48 43 -2.9 26.8
06:00 1016 30 845 24.95 9.1 48.4 44 -2.6 27.4
06:05 1016 30 845 24.95 8.8 47.9 45 -2.6 27.4
06:10 1016 30 845 24.95 8.8 47.9 44 -2.8 27
06:15 1016 30 845 24.95 8.8 47.8 44 -2.7 27.2
06:20 1016 30 845 24.95 8.6 47.4 46 -2.4 27.6
06:25 1016 30 845 24.95 8.4 47.2 45 -2.8 27
06:30 1016 30 845 24.95 8.7 47.6 43 -3.1 26.4
06:35 1016 30 845 24.95 9.1 48.4 42 -3 26.6
06:40 1016 30 845 24.95 9.6 49.3 41 -3.1 26.4
06:45 1016 30 845 24.95 10.1 50.3 39 -3.1 26.4
06:50 1016 30 845 24.95 10 50 40 -2.9 26.8
06:55 1016 30 845 24.95 9.9 49.7 41 -2.8 27
07:00 1016 30 845 24.95 9.9 49.7 40 -3 26.6
07:05 1016 30 845 24.95 9.6 49.2 42 -2.6 27.3
07:10 1016 30 845 24.95 9.2 48.5 44 -2.6 27.4
07:15 1016 30 845 24.95 8.8 47.9 46 -2.3 27.9
07:20 1016 30 845 24.95 8.4 47.1 49 -1.7 28.9
07:25 1016 30 845 24.95 7.4 45.3 53 -1.6 29.1
07:30 1016 30 845 24.95 6.3 43.4 57 -1.6 29.2
07:35 1016 30 845 24.95 5.6 42.1 60 -1.5 29.3
07:40 1016 30 845 24.95 5.1 41.1 61 -1.7 28.9
07:45 1016 30 845 24.95 4.8 40.7 63 -1.6 29.1
07:50 1016 30 845 24.95 5.1 41.1 61 -1.8 28.7
07:55 1016 30 845 24.95 5.1 41.1 62 -1.6 29.1
08:00 1016 30 845 24.95 5.2 41.4 61 -1.6 29.1
08:05 1016 30 845 24.95 5.3 41.5 61 -1.7 29
08:10 1015 29.97 845 24.95 5.7 42.2 58 -1.9 28.6
08:15 1015 29.97 845 24.95 6.4 43.6 54 -2.1 28.2
08:20 1015 29.97 845 24.95 7.3 45.1 51 -2.2 28
08:25 1015 29.97 845 24.95 8.6 47.4 46 -2.3 27.9
08:30 1015 29.97 845 24.95 9.1 48.4 45 -2.1 28.1
08:35 1015 29.97 844 24.92 9.6 49.3 43 -2.3 27.9
08:40 1015 29.97 844 24.92 10.2 50.3 42 -2.1 28.2
08:45 1015 29.97 844 24.92 10.7 51.2 42 -1.7 29
08:50 1015 29.97 844 24.92 10.4 50.8 47 -0.3 31.5
08:55 1015 29.97 844 24.92 9.1 48.5 50 -0.6 30.9
09:00 1015 29.97 844 24.92 9.5 49.1 46 -1.6 29.2
09:05 1015 29.97 844 24.92 11 51.7 42 -1.3 29.6
09:10 1015 29.97 844 24.92 11.6 52.8 43 -0.6 31
09:15 1015 29.97 844 24.92 11.9 53.4 40 -1.2 29.9
09:20 1015 29.97 844 24.92 12.3 54.2 39 -1.1 30
09:25 1015 29.97 844 24.92 12.5 54.4 38 -1.5 29.3
09:30 1015 29.97 844 24.92 13.6 56.4 34 -1.9 28.6
09:35 1015 29.97 844 24.92 13.8 56.8 39 0.2 32.3
09:40 1015 29.97 844 24.92 12.6 54.7 41 -0.1 31.8
09:45 1014 29.94 844 24.92 11.6 53 44 -0.1 31.7
09:50 1014 29.94 844 24.92 11.4 52.5 44 -0.3 31.4
09:55 1014 29.94 843 24.89 12.1 53.7 40 -1.2 29.8
10:00 1014 29.94 843 24.89 12.9 55.3 40 -0.3 31.5
10:05 1014 29.94 843 24.89 12.7 54.8 41 -0.1 31.8
10:10 1014 29.94 843 24.89 12.7 54.8 42 0.2 32.4
10:15 1014 29.94 843 24.89 13.2 55.8 40 -0.1 31.9
10:20 1014 29.94 843 24.89 13.4 56.2 41 0.4 32.7
10:25 1014 29.94 843 24.89 13.7 56.7 37 -0.6 31
10:30 1014 29.94 843 24.89 14.2 57.6 41 1.2 34.1
10:35 1014 29.94 843 24.89 13.5 56.4 38 -0.4 31.3
10:40 1014 29.94 843 24.89 14.2 57.5 40 0.9 33.6
10:45 1014 29.94 843 24.89 14.6 58.2 38 0.5 32.9
10:50 1014 29.94 843 24.89 14.8 58.6 38 0.6 33.2
10:55 1014 29.94 843 24.89 14.8 58.6 40 1.5 34.6
11:00 1014 29.94 843 24.89 14.6 58.2 39 0.8 33.5
11:05 1014 29.94 843 24.89 14.2 57.6 42 1.4 34.6
11:10 1014 29.94 843 24.89 13.6 56.4 43 1.2 34.1
11:15 1014 29.94 843 24.89 13 55.3 45 1.2 34.2
11:20 1014 29.94 843 24.89 12.4 54.3 44 0.7 33.2
11:25 1014 29.94 843 24.89 12 53.6 43 -0.2 31.6
11:30 1014 29.94 843 24.89 11.9 53.4 43 -0.1 31.8
11:35 1014 29.94 843 24.89 12.3 54.1 42 -0.1 31.9
11:40 1014 29.94 843 24.89 12.2 54 44 0.4 32.8
11:45 1014 29.94 843 24.89 11.8 53.2 44 0 32.1
11:50 1014 29.94 843 24.89 11.8 53.2 43 -0.2 31.6
11:55 1014 29.94 843 24.89 12.1 53.7 41 -0.6 31
12:00 1014 29.94 843 24.89 13 55.3 38 -1 30.2
12:05 1013 29.91 843 24.89 14.6 58.3 35 -0.6 31
12:10 1013 29.91 843 24.89 15.2 59.4 33 -0.9 30.4
12:15 1013 29.91 843 24.89 16.2 61.2 32 -0.6 31
12:20 1013 29.91 843 24.89 16.9 62.4 31 -0.3 31.5
12:25 1013 29.91 843 24.89 16.5 61.8 30 -0.8 30.6
12:30 1013 29.91 842 24.86 16.6 61.8 31 -0.6 30.9
12:35 1013 29.91 842 24.86 17.1 62.7 29 -1 30.3
12:40 1013 29.91 842 24.86 17.5 63.5 29 -0.5 31.1
12:45 1013 29.91 842 24.86 17.7 63.8 28 -0.9 30.4
12:50 1013 29.91 842 24.86 18.4 65.2 27 -0.9 30.3
12:55 1013 29.91 842 24.86 18.8 65.8 26 -0.9 30.4
13:00 1013 29.91 842 24.86 18.1 64.6 28 -0.8 30.6
13:05 1013 29.91 842 24.86 17.8 64 28 -0.9 30.4
13:10 1013 29.91 842 24.86 18 64.5 26 -1.8 28.8
13:15 1013 29.91 842 24.86 18.8 65.8 26 -0.9 30.4
13:20 1012 29.88 842 24.86 17.7 63.9 29 -0.7 30.8
13:25 1012 29.88 841 24.83 16.4 61.5 30 -1 30.3
13:30 1012 29.88 841 24.83 16.1 61.1 31 -1 30.3
13:35 1012 29.88 841 24.83 16.7 62.1 29 -1.3 29.6
13:40 1012 29.88 841 24.83 17.5 63.4 28 -1.1 30.1
13:45 1012 29.88 841 24.83 17.8 64.1 27 -1.2 29.8
13:50 1012 29.88 841 24.83 18.2 64.8 26 -1.3 29.7
13:55 1012 29.88 841 24.83 18.7 65.6 26 -1.2 29.9
14:00 1012 29.88 841 24.83 19.5 67.1 25 -0.9 30.4
14:05 1012 29.88 841 24.83 20.4 68.7 24 -0.8 30.6
14:10 1012 29.88 841 24.83 21 69.7 23 -0.9 30.3
14:15 1012 29.88 841 24.83 20.4 68.6 23 -1.3 29.6
14:20 1012 29.88 841 24.83 20.8 69.4 21 -2.1 28.2
14:25 1012 29.88 841 24.83 21.3 70.4 20 -2.5 27.4
14:30 1012 29.88 841 24.83 21.8 71.3 19 -2.8 27
14:35 1012 29.88 841 24.83 21.7 71 19 -3 26.7
14:40 1012 29.88 841 24.83 22 71.5 18 -3.5 25.6
14:45 1012 29.88 841 24.83 22 71.6 17 -3.7 25.4
14:50 1012 29.88 841 24.83 21.6 70.8 19 -2.7 27.1
14:55 1012 29.88 841 24.83 21.1 70 19 -3.2 26.2
15:00 1012 29.88 841 24.83 21 69.7 19 -3.3 26.1
15:05 1012 29.88 841 24.83 20.8 69.5 19 -3.7 25.4
15:10 1012 29.88 841 24.83 20.9 69.7 19 -3.5 25.8
15:15 1012 29.88 841 24.83 21 69.9 20 -2.8 26.9
15:20 1012 29.88 841 24.83 20.6 69.2 19 -3.6 25.5
15:25 1012 29.88 841 24.83 20.3 68.5 19 -3.7 25.3
15:30 1012 29.88 841 24.83 20 68 20 -3.5 25.7
15:35 1012 29.88 841 24.83 19.7 67.4 21 -3.4 25.9
15:40 1012 29.88 841 24.83 19.3 66.8 20 -3.8 25.2
15:45 1012 29.88 841 24.83 19.1 66.3 21 -3.9 25
15:50 1012 29.88 841 24.83 18.9 66.1 21 -3.6 25.4
15:55 1012 29.88 841 24.83 18.8 65.9 21 -4.1 24.7
16:00 1012 29.88 841 24.83 18.8 65.8 20 -4.3 24.3
16:05 1012 29.88 841 24.83 18.9 66 22 -3.2 26.2
16:10 1012 29.88 841 24.83 18.9 66 23 -2.6 27.3
16:15 1012 29.88 841 24.83 18.5 65.3 23 -2.7 27.2
16:20 1012 29.88 841 24.83 18 64.4 22 -3.7 25.3
16:25 1012 29.88 841 24.83 18.2 64.7 23 -3.2 26.3
16:30 1012 29.88 841 24.83 18 64.4 26 -1.4 29.4
16:35 1012 29.88 841 24.83 17.6 63.7 24 -3.1 26.4
16:40 1012 29.88 841 24.83 18 64.3 23 -3.5 25.7
16:45 1012 29.88 841 24.83 18.1 64.5 24 -2.7 27.2
16:50 1012 29.88 841 24.83 17.9 64.2 25 -2.3 27.9
16:55 1012 29.88 841 24.83 17.7 63.9 23 -3.5 25.7
17:00 1012 29.88 841 24.83 17.9 64.3 21 -4.4 24.1
17:05 1012 29.88 841 24.83 17.9 64.3 25 -2.5 27.6
17:10 1012 29.88 841 24.83 17.5 63.5 23 -4 24.8
17:15 1012 29.88 841 24.83 17.8 64 20 -5.4 22.3
17:20 1012 29.88 841 24.83 17.8 64.1 21 -4.8 23.4
17:25 1012 29.88 841 24.83 17.3 63.2 22 -4.6 23.7
17:30 1012 29.88 841 24.83 17 62.6 20 -5.7 21.7
17:35 1012 29.88 841 24.83 17.4 63.3 19 -6.1 21
17:40 1012 29.88 841 24.83 17.9 64.2 19 -6.2 20.8
17:45 1012 29.88 841 24.83 17.8 64 19 -6.1 21
17:50 1012 29.88 841 24.83 17.9 64.1 19 -6.2 20.9
17:55 1012 29.88 841 24.83 17.9 64.1 19 -5.7 21.7
18:00 1012 29.88 841 24.83 17.4 63.4 19 -6 21.1
18:05 1012 29.88 841 24.83 17.5 63.5 19 -6.3 20.7
18:10 1012 29.88 841 24.83 17.6 63.7 19 -6.2 20.9
18:15 1012 29.88 841 24.83 17.5 63.5 20 -5.6 21.9
18:20 1012 29.88 841 24.83 17.3 63.1 20 -5.8 21.6
18:25 1012 29.88 841 24.83 17.2 63 19 -6.2 20.9
18:30 1012 29.88 841 24.83 17.3 63.1 20 -5.8 21.6
18:35 1012 29.88 841 24.83 17.1 62.8 21 -5.6 22
18:40 1012 29.88 841 24.83 17 62.6 20 -6.1 21.1
18:45 1012 29.88 841 24.83 17.1 62.8 20 -6.3 20.7
18:50 1012 29.88 841 24.83 17.1 62.8 20 -6.1 21
18:55 1012 29.88 841 24.83 17.1 62.7 20 -5.8 21.6
19:00 1012 29.88 841 24.83 17 62.6 20 -6.2 20.9
19:05 1012 29.88 841 24.83 17.1 62.9 19 -6.3 20.7
19:10 1012 29.88 841 24.83 17.2 63 19 -6.4 20.5
19:15 1012 29.88 841 24.83 17.2 63 20 -5.8 21.5
19:20 1012 29.88 841 24.83 17 62.6 20 -5.9 21.3
19:25 1012 29.88 841 24.83 17 62.5 20 -6 21.3
19:30 1012 29.88 841 24.83 16.8 62.2 21 -5.3 22.4
19:35 1012 29.88 841 24.83 16.7 62 23 -4.7 23.5
19:40 1012 29.88 841 24.83 16.4 61.6 21 -5.8 21.6
19:45 1012 29.88 841 24.83 16.4 61.6 21 -6 21.2
19:50 1012 29.88 841 24.83 16.4 61.5 21 -5.8 21.6
19:55 1012 29.88 841 24.83 16.3 61.3 21 -5.7 21.7
20:00 1012 29.88 841 24.83 16.2 61.2 21 -6.1 21
20:05 1012 29.88 841 24.83 16.4 61.5 23 -4.4 24
20:10 1012 29.88 841 24.83 16.3 61.3 21 -6 21.2
20:15 1012 29.88 841 24.83 16.4 61.6 20 -6.8 19.8
20:20 1012 29.88 841 24.83 16.8 62.3 20 -6 21.2
20:25 1011 29.85 841 24.83 16.5 61.6 21 -5.8 21.5
20:30 1012 29.88 841 24.83 15.9 60.7 22 -5.8 21.6
20:35 1012 29.88 841 24.83 15.8 60.4 22 -5.6 22
20:40 1012 29.88 841 24.83 15.7 60.3 24 -4.6 23.8
20:45 1012 29.88 841 24.83 15.6 60.2 22 -5.8 21.6
20:50 1012 29.88 841 24.83 15.4 59.7 22 -6.3 20.6
20:55 1012 29.88 841 24.83 15.3 59.6 22 -6.4 20.4
21:00 1012 29.88 841 24.83 15.3 59.5 23 -5.9 21.3
21:05 1012 29.88 841 24.83 14.9 58.8 23 -6.2 20.9
21:10 1012 29.88 841 24.83 14.9 58.8 23 -6.2 20.9
21:15 1012 29.88 841 24.83 14.8 58.7 22 -6.9 19.6
21:20 1012 29.88 841 24.83 15.1 59.2 22 -6.2 20.8
21:25 1012 29.88 841 24.83 15 59 22 -6.4 20.5
21:30 1012 29.88 841 24.83 15 59 22 -6.4 20.5
21:35 1012 29.88 841 24.83 14.9 58.9 23 -6.2 20.8
21:40 1012 29.88 841 24.83 14.7 58.5 22 -6.6 20.2
21:45 1012 29.88 841 24.83 15 58.9 22 -6.2 20.8
21:50 1011 29.85 841 24.83 15.1 59.1 22 -6.6 20.2
21:55 1011 29.85 841 24.83 15.2 59.4 21 -7 19.4
22:00 1011 29.85 841 24.83 15.4 59.8 23 -5.4 22.3
22:05 1011 29.85 841 24.83 15.1 59.1 22 -6.5 20.2
22:10 1011 29.85 841 24.83 15.6 60.1 20 -7.2 19
22:15 1011 29.85 841 24.83 15.8 60.4 21 -6.6 20.1
22:20 1011 29.85 841 24.83 15.5 59.9 26 -3.9 25
22:25 1011 29.85 841 24.83 15.2 59.3 22 -6.3 20.6
22:30 1011 29.85 840 24.81 14.8 58.7 23 -6 21.1
22:35 1011 29.85 840 24.81 14.8 58.6 22 -6.7 19.9
22:40 1011 29.85 840 24.81 14.7 58.5 24 -5.7 21.8
22:45 1011 29.85 840 24.81 14 57.2 24 -5.9 21.3
22:50 1011 29.85 840 24.81 14.1 57.4 23 -6.6 20.2
22:55 1011 29.85 840 24.81 14 57.2 25 -5.5 22.1
23:00 1011 29.85 840 24.81 13 55.5 26 -5.9 21.4
23:05 1011 29.85 840 24.81 12.8 55 28 -5.4 22.3
23:10 1011 29.85 840 24.81 12.1 53.9 27 -6.2 20.9
23:15 1011 29.85 840 24.81 12.5 54.4 28 -5.7 21.8
23:20 1011 29.85 840 24.81 12.2 54 28 -5.8 21.5
23:25 1011 29.85 840 24.81 12.3 54.1 27 -5.9 21.3
23:30 1011 29.85 840 24.81 12 53.5 28 -6.1 21
23:35 1011 29.85 840 24.81 11.9 53.3 28 -5.8 21.5
23:40 1011 29.85 840 24.81 11.6 52.9 28 -6.4 20.4
23:45 1011 29.85 840 24.81 11.8 53.2 29 -5.7 21.8
23:50 1011 29.85 840 24.81 11.4 52.5 30 -5.7 21.7
23:55 1011 29.85 840 24.81 11.3 52.4 30 -5.7 21.7
24:00 1011 29.85 840 24.81 11 51.8 31 -5.5 22.2